PWSweather.com
Personal Weather Stations
Station Observations
COONRAPIDS
Minneapolis, MN 55433

Minneapolis, MN 55433

Lat: 45.187721, Lon: -93.36828

Elevation: 898

Station Type: Davis Vantage Pro 2

High Low Average
Temperature 26.9°F-2.8°C 9.4°F-12.6°C 20.7°F-6.3°C
Dew Point 21.1°F-6.1°C 5.5°F-14.7°C 16.1°F-8.8°C
Winds 3.5 mph 5.6 kmh Calm Calm Calm WSWCalm WSW
Wind Gusts 5.8 mph9.3 kmh -- --
Humidity 86% 77% 82%
Pressure 30.30 in1026.1 mb 30.23 in1023.7 mb -
Precipitation 0.00 in0.0 mm - -
Hour Temp Dew Point Humidity Winds Wind Gusts Pressure Precip Precip Rate Daily Precip Total
12:00 AM 16.8°F-8.4°C 12.3°F-10.9°C 82% Calm Calm -- 30.23 in1023.7 mb - 0.00 in0.0 mm 0.03 in0.8 mm
12:10 AM 16.7°F-8.5°C 12.2°F-11.0°C 82% Calm Calm -- 30.23 in1023.7 mb - 0.00 in0.0 mm 0.03 in0.8 mm
12:20 AM 16.6°F-8.6°C 12.1°F-11.1°C 82% Calm Calm -- 30.23 in1023.7 mb - 0.00 in0.0 mm 0.03 in0.8 mm
12:30 AM 16.5°F-8.6°C 12.0°F-11.1°C 82% Calm Calm -- 30.24 in1024.0 mb - 0.00 in0.0 mm 0.03 in0.8 mm
12:40 AM 16.2°F-8.8°C 11.7°F-11.3°C 82% Calm Calm -- 30.24 in1024.0 mb - 0.00 in0.0 mm 0.03 in0.8 mm
12:50 AM 15.8°F-9.0°C 11.3°F-11.5°C 82% Calm Calm -- 30.24 in1024.0 mb - 0.00 in0.0 mm 0.03 in0.8 mm
01:00 AM 15.3°F-9.3°C 10.8°F-11.8°C 82% Calm Calm -- 30.24 in1024.0 mb - 0.00 in0.0 mm 0.00 in0.0 mm
01:10 AM 14.7°F-9.6°C 10.2°F-12.1°C 82% Calm Calm -- 30.24 in1024.0 mb - 0.00 in0.0 mm 0.00 in0.0 mm
01:20 AM 14.1°F-9.9°C 9.6°F-12.4°C 82% Calm Calm -- 30.25 in1024.4 mb - 0.00 in0.0 mm 0.00 in0.0 mm
01:30 AM 13.6°F-10.2°C 9.1°F-12.7°C 82% Calm Calm -- 30.24 in1024.0 mb - 0.00 in0.0 mm 0.00 in0.0 mm
01:40 AM 13.2°F-10.4°C 8.7°F-12.9°C 82% Calm Calm -- 30.24 in1024.0 mb - 0.00 in0.0 mm 0.00 in0.0 mm
01:50 AM 12.7°F-10.7°C 8.3°F-13.2°C 82% Calm Calm -- 30.24 in1024.0 mb - 0.00 in0.0 mm 0.00 in0.0 mm
02:00 AM 12.3°F-10.9°C 7.9°F-13.4°C 82% Calm Calm -- 30.24 in1024.0 mb - 0.00 in0.0 mm 0.00 in0.0 mm
02:10 AM 12.1°F-11.1°C 7.7°F-13.5°C 82% Calm Calm -- 30.24 in1024.0 mb - 0.00 in0.0 mm 0.00 in0.0 mm
02:20 AM 11.8°F-11.2°C 7.6°F-13.6°C 83% Calm Calm -- 30.24 in1024.0 mb - 0.00 in0.0 mm 0.00 in0.0 mm
02:30 AM 11.6°F-11.3°C 7.4°F-13.7°C 83% Calm Calm -- 30.24 in1024.0 mb - 0.00 in0.0 mm 0.00 in0.0 mm
02:40 AM 11.4°F-11.4°C 7.3°F-13.7°C 83% Calm Calm -- 30.24 in1024.0 mb - 0.00 in0.0 mm 0.00 in0.0 mm
02:50 AM 11.3°F-11.5°C 7.1°F-13.8°C 83% Calm Calm -- 30.25 in1024.4 mb - 0.00 in0.0 mm 0.00 in0.0 mm
03:00 AM 11.1°F-11.6°C 6.9°F-13.9°C 83% Calm Calm -- 30.25 in1024.4 mb - 0.00 in0.0 mm 0.00 in0.0 mm
03:10 AM 11.0°F-11.7°C 7.1°F-13.8°C 84% Calm Calm -- 30.25 in1024.4 mb - 0.00 in0.0 mm 0.00 in0.0 mm
03:20 AM 10.7°F-11.8°C 6.6°F-14.1°C 83% Calm Calm -- 30.25 in1024.4 mb - 0.00 in0.0 mm 0.00 in0.0 mm
03:30 AM 10.4°F-12.0°C 6.3°F-14.3°C 83% Calm Calm -- 30.25 in1024.4 mb - 0.00 in0.0 mm 0.00 in0.0 mm
03:40 AM 10.1°F-12.2°C 6.2°F-14.3°C 84% Calm Calm -- 30.26 in1024.7 mb - 0.00 in0.0 mm 0.00 in0.0 mm
03:50 AM 10.0°F-12.2°C 6.1°F-14.4°C 84% Calm Calm -- 30.26 in1024.7 mb - 0.00 in0.0 mm 0.00 in0.0 mm
04:00 AM 10.0°F-12.2°C 6.1°F-14.4°C 84% Calm Calm -- 30.26 in1024.7 mb - 0.00 in0.0 mm 0.00 in0.0 mm
04:10 AM 9.9°F-12.3°C 6.0°F-14.4°C 84% Calm Calm -- 30.26 in1024.7 mb - 0.00 in0.0 mm 0.00 in0.0 mm
04:20 AM 9.7°F-12.4°C 5.8°F-14.6°C 84% Calm Calm -- 30.25 in1024.4 mb - 0.00 in0.0 mm 0.00 in0.0 mm
04:30 AM 9.6°F-12.4°C 5.7°F-14.6°C 84% Calm Calm -- 30.25 in1024.4 mb - 0.00 in0.0 mm 0.00 in0.0 mm
04:40 AM 9.4°F-12.6°C 5.6°F-14.7°C 84% Calm Calm -- 30.25 in1024.4 mb - 0.00 in0.0 mm 0.00 in0.0 mm
04:50 AM 9.4°F-12.6°C 5.5°F-14.7°C 84% Calm Calm -- 30.25 in1024.4 mb - 0.00 in0.0 mm 0.00 in0.0 mm
05:00 AM 9.4°F-12.6°C 5.5°F-14.7°C 84% Calm Calm -- 30.25 in1024.4 mb - 0.00 in0.0 mm 0.00 in0.0 mm
05:10 AM 9.4°F-12.6°C 5.5°F-14.7°C 84% Calm Calm -- 30.25 in1024.4 mb - 0.00 in0.0 mm 0.00 in0.0 mm
05:20 AM 9.5°F-12.5°C 5.6°F-14.7°C 84% Calm Calm -- 30.25 in1024.4 mb - 0.00 in0.0 mm 0.00 in0.0 mm
05:30 AM 10.0°F-12.2°C 6.4°F-14.2°C 85% Calm Calm -- 30.25 in1024.4 mb - 0.00 in0.0 mm 0.00 in0.0 mm
05:40 AM 10.7°F-11.8°C 7.1°F-13.8°C 85% Calm Calm -- 30.25 in1024.4 mb - 0.00 in0.0 mm 0.00 in0.0 mm
05:50 AM 11.7°F-11.3°C 8.0°F-13.3°C 85% Calm Calm -- 30.25 in1024.4 mb - 0.00 in0.0 mm 0.00 in0.0 mm
06:00 AM 12.3°F-10.9°C 8.7°F-12.9°C 85% Calm Calm -- 30.25 in1024.4 mb - 0.00 in0.0 mm 0.00 in0.0 mm
06:10 AM 12.9°F-10.6°C 9.3°F-12.6°C 85% Calm Calm -- 30.25 in1024.4 mb - 0.00 in0.0 mm 0.00 in0.0 mm
06:20 AM 14.0°F-10.0°C 10.6°F-11.9°C 86% Calm Calm -- 30.25 in1024.4 mb - 0.00 in0.0 mm 0.00 in0.0 mm
06:30 AM 14.7°F-9.6°C 11.3°F-11.5°C 86% Calm Calm -- 30.26 in1024.7 mb - 0.00 in0.0 mm 0.00 in0.0 mm
06:40 AM 15.3°F-9.3°C 11.9°F-11.2°C 86% Calm Calm -- 30.26 in1024.7 mb - 0.00 in0.0 mm 0.00 in0.0 mm
06:50 AM 15.7°F-9.1°C 12.3°F-10.9°C 86% Calm Calm -- 30.26 in1024.7 mb - 0.00 in0.0 mm 0.00 in0.0 mm
07:00 AM 16.1°F-8.8°C 12.7°F-10.7°C 86% Calm Calm -- 30.26 in1024.7 mb - 0.00 in0.0 mm 0.00 in0.0 mm
07:10 AM 16.5°F-8.6°C 13.0°F-10.6°C 86% Calm Calm -- 30.26 in1024.7 mb - 0.00 in0.0 mm 0.00 in0.0 mm
07:20 AM 16.7°F-8.5°C 13.2°F-10.4°C 86% Calm Calm -- 30.26 in1024.7 mb - 0.00 in0.0 mm 0.00 in0.0 mm
07:30 AM 17.0°F-8.3°C 13.5°F-10.3°C 86% Calm Calm -- 30.27 in1025.1 mb - 0.00 in0.0 mm 0.00 in0.0 mm
07:40 AM 17.2°F-8.2°C 13.7°F-10.2°C 86% Calm Calm -- 30.27 in1025.1 mb - 0.00 in0.0 mm 0.00 in0.0 mm
07:50 AM 17.5°F-8.1°C 14.0°F-10.0°C 86% Calm Calm -- 30.27 in1025.1 mb - 0.00 in0.0 mm 0.00 in0.0 mm
08:00 AM 17.7°F-7.9°C 14.2°F-9.9°C 86% Calm Calm -- 30.27 in1025.1 mb - 0.00 in0.0 mm 0.00 in0.0 mm
08:10 AM 17.8°F-7.9°C 14.1°F-9.9°C 85% Calm Calm -- 30.27 in1025.1 mb - 0.00 in0.0 mm 0.00 in0.0 mm
08:20 AM 18.0°F-7.8°C 14.3°F-9.8°C 85% Calm Calm -- 30.28 in1025.4 mb - 0.00 in0.0 mm 0.00 in0.0 mm
08:30 AM 18.1°F-7.7°C 14.7°F-9.6°C 86% Calm Calm -- 30.28 in1025.4 mb - 0.00 in0.0 mm 0.00 in0.0 mm
08:40 AM 18.2°F-7.7°C 14.7°F-9.6°C 86% Calm Calm -- 30.28 in1025.4 mb - 0.00 in0.0 mm 0.00 in0.0 mm
08:50 AM 18.4°F-7.6°C 14.6°F-9.7°C 85% Calm Calm -- 30.28 in1025.4 mb - 0.00 in0.0 mm 0.00 in0.0 mm
09:00 AM 18.6°F-7.4°C 14.8°F-9.6°C 85% Calm Calm -- 30.28 in1025.4 mb - 0.00 in0.0 mm 0.00 in0.0 mm
09:10 AM 18.8°F-7.3°C 15.3°F-9.3°C 86% Calm Calm -- 30.29 in1025.7 mb - 0.00 in0.0 mm 0.00 in0.0 mm
09:20 AM 19.0°F-7.2°C 15.5°F-9.2°C 86% Calm Calm -- 30.29 in1025.7 mb - 0.00 in0.0 mm 0.00 in0.0 mm
09:30 AM 19.3°F-7.1°C 15.8°F-9.0°C 86% Calm Calm -- 30.29 in1025.7 mb - 0.00 in0.0 mm 0.00 in0.0 mm
09:40 AM 19.6°F-6.9°C 16.1°F-8.8°C 86% Calm Calm -- 30.29 in1025.7 mb - 0.00 in0.0 mm 0.00 in0.0 mm
09:50 AM 19.9°F-6.7°C 16.4°F-8.7°C 86% Calm Calm -- 30.29 in1025.7 mb - 0.00 in0.0 mm 0.00 in0.0 mm
10:00 AM 20.2°F-6.6°C 16.7°F-8.5°C 86% Calm Calm -- 30.29 in1025.7 mb - 0.00 in0.0 mm 0.00 in0.0 mm
10:10 AM 20.5°F-6.4°C 16.9°F-8.4°C 86% Calm Calm -- 30.30 in1026.1 mb - 0.00 in0.0 mm 0.00 in0.0 mm
10:20 AM 20.8°F-6.2°C 17.0°F-8.3°C 85% Calm Calm -- 30.29 in1025.7 mb - 0.00 in0.0 mm 0.00 in0.0 mm
10:30 AM 21.1°F-6.1°C 17.3°F-8.2°C 85% Calm Calm -- 30.30 in1026.1 mb - 0.00 in0.0 mm 0.00 in0.0 mm
10:40 AM 21.3°F-5.9°C 17.3°F-8.2°C 84% Calm Calm -- 30.30 in1026.1 mb - 0.00 in0.0 mm 0.00 in0.0 mm
10:50 AM 21.8°F-5.7°C 17.7°F-7.9°C 84% Calm Calm -- 30.30 in1026.1 mb - 0.00 in0.0 mm 0.00 in0.0 mm
11:00 AM 22.3°F-5.4°C 18.2°F-7.7°C 84% Calm Calm -- 30.30 in1026.1 mb - 0.00 in0.0 mm 0.00 in0.0 mm
11:10 AM 22.8°F-5.1°C 18.4°F-7.6°C 83% Calm Calm -- 30.30 in1026.1 mb - 0.00 in0.0 mm 0.00 in0.0 mm
11:20 AM 22.9°F-5.1°C 17.9°F-7.8°C 81% Calm Calm -- 30.30 in1026.1 mb - 0.00 in0.0 mm 0.00 in0.0 mm
11:30 AM 23.2°F-4.9°C 18.2°F-7.7°C 81% Calm Calm -- 30.30 in1026.1 mb - 0.00 in0.0 mm 0.00 in0.0 mm
11:40 AM 23.5°F-4.7°C 18.2°F-7.7°C 80% Calm Calm -- 30.30 in1026.1 mb - 0.00 in0.0 mm 0.00 in0.0 mm
11:50 AM 23.7°F-4.6°C 18.1°F-7.7°C 79% Calm Calm -- 30.30 in1026.1 mb - 0.00 in0.0 mm 0.00 in0.0 mm
12:00 PM 23.7°F-4.6°C 18.1°F-7.7°C 79% Calm Calm -- 30.30 in1026.1 mb - 0.00 in0.0 mm 0.00 in0.0 mm
12:10 PM 23.9°F-4.5°C 18.3°F-7.6°C 79% Calm Calm -- 30.30 in1026.1 mb - 0.00 in0.0 mm 0.00 in0.0 mm
12:20 PM 23.9°F-4.5°C 18.1°F-7.7°C 78% Calm Calm -- 30.29 in1025.7 mb - 0.00 in0.0 mm 0.00 in0.0 mm
12:30 PM 24.1°F-4.4°C 18.2°F-7.7°C 78% Calm Calm -- 30.29 in1025.7 mb - 0.00 in0.0 mm 0.00 in0.0 mm
12:40 PM 24.2°F-4.3°C 18.3°F-7.6°C 78% Calm Calm -- 30.28 in1025.4 mb - 0.00 in0.0 mm 0.00 in0.0 mm
12:50 PM 24.3°F-4.3°C 18.4°F-7.6°C 78% Calm Calm -- 30.27 in1025.1 mb - 0.00 in0.0 mm 0.00 in0.0 mm
01:00 PM 24.5°F-4.2°C 18.6°F-7.4°C 78% Calm Calm -- 30.27 in1025.1 mb - 0.00 in0.0 mm 0.00 in0.0 mm
01:10 PM 24.6°F-4.1°C 18.4°F-7.6°C 77% Calm Calm -- 30.27 in1025.1 mb - 0.00 in0.0 mm 0.00 in0.0 mm
01:20 PM 24.8°F-4.0°C 18.9°F-7.3°C 78% Calm Calm -- 30.27 in1025.1 mb - 0.00 in0.0 mm 0.00 in0.0 mm
01:30 PM 25.0°F-3.9°C 18.8°F-7.3°C 77% Calm Calm -- 30.26 in1024.7 mb - 0.00 in0.0 mm 0.00 in0.0 mm
01:40 PM 25.1°F-3.8°C 18.9°F-7.3°C 77% Calm Calm -- 30.26 in1024.7 mb - 0.00 in0.0 mm 0.00 in0.0 mm
01:50 PM 25.1°F-3.8°C 18.9°F-7.3°C 77% Calm Calm -- 30.26 in1024.7 mb - 0.00 in0.0 mm 0.00 in0.0 mm
02:00 PM 25.2°F-3.8°C 19.0°F-7.2°C 77% Calm Calm -- 30.26 in1024.7 mb - 0.00 in0.0 mm 0.00 in0.0 mm
02:10 PM 25.3°F-3.7°C 19.1°F-7.2°C 77% Calm Calm -- 30.26 in1024.7 mb - 0.00 in0.0 mm 0.00 in0.0 mm
02:20 PM 25.3°F-3.7°C 19.1°F-7.2°C 77% Calm Calm -- 30.26 in1024.7 mb - 0.00 in0.0 mm 0.00 in0.0 mm
02:30 PM 25.5°F-3.6°C 19.3°F-7.1°C 77% Calm Calm -- 30.25 in1024.4 mb - 0.00 in0.0 mm 0.00 in0.0 mm
02:40 PM 25.5°F-3.6°C 19.3°F-7.1°C 77% Calm Calm -- 30.25 in1024.4 mb - 0.00 in0.0 mm 0.00 in0.0 mm
02:50 PM 25.7°F-3.5°C 19.5°F-6.9°C 77% Calm Calm -- 30.25 in1024.4 mb - 0.00 in0.0 mm 0.00 in0.0 mm
03:00 PM 25.8°F-3.4°C 19.6°F-6.9°C 77% Calm Calm -- 30.25 in1024.4 mb - 0.00 in0.0 mm 0.00 in0.0 mm
03:10 PM 25.8°F-3.4°C 19.6°F-6.9°C 77% Calm Calm -- 30.25 in1024.4 mb - 0.00 in0.0 mm 0.00 in0.0 mm
03:20 PM 25.7°F-3.5°C 19.5°F-6.9°C 77% Calm Calm -- 30.25 in1024.4 mb - 0.00 in0.0 mm 0.00 in0.0 mm
03:30 PM 25.8°F-3.4°C 19.9°F-6.7°C 78% Calm Calm -- 30.25 in1024.4 mb - 0.00 in0.0 mm 0.00 in0.0 mm
03:40 PM 25.8°F-3.4°C 19.6°F-6.9°C 77% Calm Calm -- 30.25 in1024.4 mb - 0.00 in0.0 mm 0.00 in0.0 mm
03:50 PM 26.0°F-3.3°C 20.1°F-6.6°C 78% Calm Calm -- 30.25 in1024.4 mb - 0.00 in0.0 mm 0.00 in0.0 mm
04:00 PM 26.3°F-3.2°C 20.4°F-6.4°C 78% 1.2 mph S1.9 kmh S -- 30.25 in1024.4 mb - 0.00 in0.0 mm 0.00 in0.0 mm
04:10 PM 26.2°F-3.2°C 20.3°F-6.5°C 78% Calm Calm -- 30.25 in1024.4 mb - 0.00 in0.0 mm 0.00 in0.0 mm
04:20 PM 26.3°F-3.2°C 20.4°F-6.4°C 78% Calm Calm -- 30.25 in1024.4 mb - 0.00 in0.0 mm 0.00 in0.0 mm
04:30 PM 26.5°F-3.1°C 20.6°F-6.3°C 78% Calm Calm -- 30.25 in1024.4 mb - 0.00 in0.0 mm 0.00 in0.0 mm
04:40 PM 26.6°F-3.0°C 20.7°F-6.3°C 78% Calm Calm -- 30.25 in1024.4 mb - 0.00 in0.0 mm 0.00 in0.0 mm
04:50 PM 26.7°F-2.9°C 20.8°F-6.2°C 78% Calm Calm -- 30.25 in1024.4 mb - 0.00 in0.0 mm 0.00 in0.0 mm
05:00 PM 26.9°F-2.8°C 21.0°F-6.1°C 78% Calm Calm -- 30.25 in1024.4 mb - 0.00 in0.0 mm 0.00 in0.0 mm
05:10 PM 26.9°F-2.8°C 21.0°F-6.1°C 78% Calm Calm 1.2 mph1.9 kmh 30.25 in1024.4 mb - 0.00 in0.0 mm 0.00 in0.0 mm
05:20 PM 26.8°F-2.9°C 20.9°F-6.2°C 78% Calm Calm -- 30.25 in1024.4 mb - 0.00 in0.0 mm 0.00 in0.0 mm
05:30 PM 26.7°F-2.9°C 20.8°F-6.2°C 78% Calm Calm -- 30.25 in1024.4 mb - 0.00 in0.0 mm 0.00 in0.0 mm
05:40 PM 26.7°F-2.9°C 21.1°F-6.1°C 79% Calm Calm -- 30.25 in1024.4 mb - 0.00 in0.0 mm 0.00 in0.0 mm
05:50 PM 26.7°F-2.9°C 21.1°F-6.1°C 79% Calm Calm -- 30.25 in1024.4 mb - 0.00 in0.0 mm 0.00 in0.0 mm
06:00 PM 26.6°F-3.0°C 21.0°F-6.1°C 79% 1.2 mph S1.9 kmh S 3.5 mph5.6 kmh 30.25 in1024.4 mb - 0.00 in0.0 mm 0.00 in0.0 mm
06:10 PM 26.6°F-3.0°C 20.9°F-6.2°C 79% Calm Calm -- 30.25 in1024.4 mb - 0.00 in0.0 mm 0.00 in0.0 mm
06:20 PM 26.5°F-3.1°C 20.9°F-6.2°C 79% Calm Calm -- 30.25 in1024.4 mb - 0.00 in0.0 mm 0.00 in0.0 mm
06:30 PM 26.3°F-3.2°C 21.0°F-6.1°C 80% Calm Calm -- 30.25 in1024.4 mb - 0.00 in0.0 mm 0.00 in0.0 mm
06:40 PM 26.3°F-3.2°C 20.9°F-6.2°C 80% Calm Calm -- 30.25 in1024.4 mb - 0.00 in0.0 mm 0.00 in0.0 mm
06:50 PM 26.2°F-3.2°C 20.9°F-6.2°C 80% Calm Calm -- 30.25 in1024.4 mb - 0.00 in0.0 mm 0.00 in0.0 mm
07:00 PM 26.2°F-3.2°C 20.9°F-6.2°C 80% Calm Calm -- 30.25 in1024.4 mb - 0.00 in0.0 mm 0.00 in0.0 mm
07:10 PM 26.2°F-3.2°C 20.9°F-6.2°C 80% Calm Calm -- 30.25 in1024.4 mb - 0.00 in0.0 mm 0.00 in0.0 mm
07:20 PM 26.2°F-3.2°C 20.9°F-6.2°C 80% Calm Calm -- 30.25 in1024.4 mb - 0.00 in0.0 mm 0.00 in0.0 mm
07:30 PM 26.2°F-3.2°C 20.8°F-6.2°C 80% Calm Calm -- 30.25 in1024.4 mb - 0.00 in0.0 mm 0.00 in0.0 mm
07:40 PM 25.8°F-3.4°C 20.5°F-6.4°C 80% Calm Calm -- 30.25 in1024.4 mb - 0.00 in0.0 mm 0.00 in0.0 mm
07:50 PM 25.6°F-3.6°C 20.3°F-6.5°C 80% Calm Calm -- 30.25 in1024.4 mb - 0.00 in0.0 mm 0.00 in0.0 mm
08:00 PM 25.5°F-3.6°C 20.2°F-6.6°C 80% Calm Calm -- 30.25 in1024.4 mb - 0.00 in0.0 mm 0.00 in0.0 mm
08:10 PM 25.4°F-3.7°C 20.1°F-6.6°C 80% Calm Calm -- 30.25 in1024.4 mb - 0.00 in0.0 mm 0.00 in0.0 mm
08:20 PM 25.4°F-3.7°C 20.4°F-6.4°C 81% Calm Calm -- 30.24 in1024.0 mb - 0.00 in0.0 mm 0.00 in0.0 mm
08:30 PM 25.4°F-3.7°C 20.4°F-6.4°C 81% Calm Calm -- 30.24 in1024.0 mb - 0.00 in0.0 mm 0.00 in0.0 mm
08:40 PM 25.4°F-3.7°C 20.4°F-6.4°C 81% Calm Calm -- 30.24 in1024.0 mb - 0.00 in0.0 mm 0.00 in0.0 mm
08:50 PM 25.5°F-3.6°C 20.5°F-6.4°C 81% Calm Calm -- 30.24 in1024.0 mb - 0.00 in0.0 mm 0.00 in0.0 mm
09:00 PM 25.5°F-3.6°C 20.5°F-6.4°C 81% Calm Calm -- 30.24 in1024.0 mb - 0.00 in0.0 mm 0.00 in0.0 mm
09:10 PM 25.5°F-3.6°C 20.5°F-6.4°C 81% Calm Calm -- 30.24 in1024.0 mb - 0.00 in0.0 mm 0.00 in0.0 mm
09:20 PM 25.4°F-3.7°C 20.4°F-6.4°C 81% Calm Calm -- 30.24 in1024.0 mb - 0.00 in0.0 mm 0.00 in0.0 mm
09:30 PM 25.3°F-3.7°C 20.3°F-6.5°C 81% Calm Calm -- 30.23 in1023.7 mb - 0.00 in0.0 mm 0.00 in0.0 mm
09:40 PM 25.3°F-3.7°C 20.3°F-6.5°C 81% Calm Calm -- 30.24 in1024.0 mb - 0.00 in0.0 mm 0.00 in0.0 mm
09:50 PM 25.4°F-3.7°C 20.4°F-6.4°C 81% Calm Calm -- 30.24 in1024.0 mb - 0.00 in0.0 mm 0.00 in0.0 mm
10:00 PM 25.3°F-3.7°C 20.3°F-6.5°C 81% 1.2 mph S1.9 kmh S 2.3 mph3.7 kmh 30.24 in1024.0 mb - 0.00 in0.0 mm 0.00 in0.0 mm
10:10 PM 25.1°F-3.8°C 20.4°F-6.4°C 82% 1.2 mph S1.9 kmh S 5.8 mph9.3 kmh 30.24 in1024.0 mb - 0.00 in0.0 mm 0.00 in0.0 mm
10:20 PM 24.9°F-3.9°C 20.5°F-6.4°C 83% Calm Calm 4.6 mph7.4 kmh 30.24 in1024.0 mb - 0.00 in0.0 mm 0.00 in0.0 mm
10:30 PM 24.7°F-4.1°C 20.3°F-6.5°C 83% 1.2 mph S1.9 kmh S 3.5 mph5.6 kmh 30.24 in1024.0 mb - 0.00 in0.0 mm 0.00 in0.0 mm
10:40 PM 24.6°F-4.1°C 20.5°F-6.4°C 84% Calm Calm -- 30.24 in1024.0 mb - 0.00 in0.0 mm 0.00 in0.0 mm
10:50 PM 24.5°F-4.2°C 20.4°F-6.4°C 84% Calm Calm -- 30.24 in1024.0 mb - 0.00 in0.0 mm 0.00 in0.0 mm
11:00 PM 24.5°F-4.2°C 20.4°F-6.4°C 84% Calm Calm -- 30.24 in1024.0 mb - 0.00 in0.0 mm 0.00 in0.0 mm
11:10 PM 24.3°F-4.3°C 20.4°F-6.4°C 85% 3.5 mph S5.6 kmh S 3.5 mph5.6 kmh 30.24 in1024.0 mb - 0.00 in0.0 mm 0.00 in0.0 mm
11:20 PM 24.2°F-4.3°C 20.3°F-6.5°C 85% Calm Calm -- 30.24 in1024.0 mb - 0.00 in0.0 mm 0.00 in0.0 mm
11:30 PM 24.2°F-4.3°C 20.3°F-6.5°C 85% Calm Calm -- 30.24 in1024.0 mb - 0.00 in0.0 mm 0.00 in0.0 mm
11:40 PM 24.2°F-4.3°C 20.3°F-6.5°C 85% Calm Calm -- 30.25 in1024.4 mb - 0.00 in0.0 mm 0.00 in0.0 mm
11:50 PM 24.2°F-4.3°C 20.3°F-6.5°C 85% Calm Calm -- 30.25 in1024.4 mb - 0.00 in0.0 mm 0.00 in0.0 mm